Thunder radar more information blitzortung!


Radar de pluja more information rain snow radar


Visita la nostra xarxa de llocs de meteo:

Template documentation
and downloads

And another site



No particular awareness of the weather is required.    There are no Weather-warnings

Pagina Historial Weather Underground text

Diari Resum Juliol 4, 2017 Unitats:  Imperial    Mètric   Tant
« Previous Dia
SegĂźent Dia »
Diari Setmana Mensual Anual Personalitzada
  Maxima: Minima: Media:
Temperatura: 91.4 °F 61.5 °F 79 °F
Punt de rosada: 59.4 °F 47.7 °F 52.3 °F
Humitat: 79 % 26 % 43 %
Wind Speed: 12.7 mph 0 mph 4.5 mph
RĂ fegues de vent: 12.7 mph - -
Vent:- - SSW
Pression baro: 30.1 in 30 in -
Precipitacions: 0 in    
Historical Graphs
 
 
Dades de taula per Juliol 4, 2017
Temps Temperatura Punt de rosada Pression baro Vent Wind Speed RĂ fegues de vent Humitat Rainfall Rate (Hourly)
00:00 64 °F 56.3 °F 30.1 in Calm   1 mph 76 % 0 in
00:01 70.5 °F 52.5 °F 30.1 in WSW 2.3 mph 2.3 mph 53 % 0 in
00:06 70.3 °F 52.3 °F 30.1 in West 2.3 mph 2.3 mph 53 % 0 in
00:10 63.7 °F 55.6 °F 30.1 in Calm   2 mph 75 % 0 in
00:20 63.3 °F 55.2 °F 30.1 in Calm     75 % 0 in
00:30 62.8 °F 55 °F 30.1 in Calm   2 mph 76 % 0 in
00:40 62.2 °F 54.7 °F 30.1 in WSW 1 mph 3 mph 76 % 0 in
00:50 61.9 °F 54.7 °F 30.1 in WSW 2 mph 2 mph 77 % 0 in
01:00 61.7 °F 54.3 °F 30.1 in SW 1 mph 2 mph 77 % 0 in
01:10 61.7 °F 54.9 °F 30.1 in Calm   2 mph 78 % 0 in
01:20 61.7 °F 54.9 °F 30.1 in Calm   1 mph 78 % 0 in
01:30 61.7 °F 55 °F 30.1 in Calm     79 % 0 in
01:40 61.7 °F 55 °F 30.1 in Calm     79 % 0 in
01:50 61.7 °F 55 °F 30.1 in Calm   1 mph 79 % 0 in
02:00 61.5 °F 54.7 °F 30.1 in WSW 2 mph 2 mph 78 % 0 in
02:10 61.5 °F 54.7 °F 30.1 in SW 1 mph 2 mph 78 % 0 in
02:20 62.1 °F 54.3 °F 30.1 in SW 2 mph 2 mph 76 % 0 in
02:30 62.4 °F 54.9 °F 30.1 in Calm   2 mph 76 % 0 in
02:40 63.5 °F 55 °F 30.1 in SW 1 mph 2 mph 74 % 0 in
02:50 64.9 °F 56.1 °F 30.1 in Calm   1 mph 73 % 0 in
03:00 66.7 °F 57 °F 30.1 in SW 1 mph 1 mph 71 % 0 in
03:10 68.2 °F 57.2 °F 30.1 in Calm   1 mph 68 % 0 in
03:20 68.2 °F 56.5 °F 30.1 in ESE 1 mph 2 mph 66 % 0 in
03:30 67.8 °F 56.5 °F 30.1 in SW 1 mph 3 mph 67 % 0 in
03:40 69.1 °F 56.8 °F 30.1 in SSW 1 mph 2 mph 65 % 0 in
03:50 70.2 °F 57 °F 30.1 in South 1 mph 2 mph 63 % 0 in
04:00 71.1 °F 57.4 °F 30.1 in SE 2 mph 2 mph 62 % 0 in
04:10 72 °F 57.7 °F 30.1 in SE 1 mph 2 mph 61 % 0 in
04:20 74.1 °F 59.4 °F 30.1 in South 1 mph 2 mph 60 % 0 in
04:30 74.1 °F 58.5 °F 30.1 in Calm   3 mph 58 % 0 in
04:40 75.4 °F 58.6 °F 30.1 in NE 2 mph 3 mph 56 % 0 in
04:50 75.6 °F 56.7 °F 30.1 in ENE 2 mph 3 mph 52 % 0 in
05:00 76.6 °F 57.7 °F 30.1 in Calm   2 mph 52 % 0 in
10:01 78.1 °F 57.9 °F 30.1 in West 2.3 mph   50 % 0 in
10:06 78.8 °F 57.9 °F 30.1 in WSW 3.1 mph 3.1 mph 49 % 0 in
10:11 77.5 °F 56.3 °F 30.1 in SSE 3.5 mph 3.5 mph 48 % 0 in
10:16 78.4 °F 57 °F 30.1 in ESE 2.3 mph 2.3 mph 48 % 0 in
10:21 78.6 °F 56.7 °F 30.1 in NE 3.5 mph 3.5 mph 47 % 0 in
10:26 78.6 °F 56.7 °F 30.1 in ENE 1.2 mph 1.2 mph 47 % 0 in
10:31 79.7 °F 57 °F 30.1 in East 3.5 mph 3.5 mph 46 % 0 in
10:36 80.4 °F 57.7 °F 30.1 in South 2.3 mph 2.3 mph 46 % 0 in
10:41 81 °F 57.6 °F 30 in SW 2.9 mph 2.9 mph 45 % 0 in
10:46 80.8 °F 57.6 °F 30 in West 4.6 mph 4.6 mph 45 % 0 in
10:51 81.9 °F 57.2 °F 30 in SE 3.6 mph 3.6 mph 43 % 0 in
10:56 82.9 °F 56.8 °F 30.1 in SSE 4.9 mph 4.9 mph 41 % 0 in
11:01 82.9 °F 56.8 °F 30.1 in SW 2.9 mph 2.9 mph 41 % 0 in
11:06 83.3 °F 57 °F 30.1 in SW 5.8 mph 5.8 mph 41 % 0 in
11:11 83.5 °F 57.4 °F 30 in West 4.6 mph 4.6 mph 41 % 0 in
11:16 83.7 °F 56.8 °F 30 in SW 2.3 mph 2.4 mph 40 % 0 in
11:21 83.7 °F 55.4 °F 30 in SW 3.6 mph 3.6 mph 38 % 0 in
11:26 85.1 °F 55 °F 30.1 in SE 3.5 mph 3.5 mph 36 % 0 in
11:31 84.9 °F 55.8 °F 30.1 in NW 4.6 mph 4.6 mph 37 % 0 in
11:36 85.1 °F 55 °F 30.1 in NNW 4.6 mph 4.6 mph 36 % 0 in
11:41 86.2 °F 54.5 °F 30.1 in SSW 2.3 mph 2.3 mph 34 % 0 in
11:46 86.7 °F 55.8 °F 30.1 in SW 3.5 mph 3.5 mph 35 % 0 in
11:51 86.5 °F 54.9 °F 30.1 in SW 3.5 mph 3.5 mph 34 % 0 in
11:56 85.8 °F 55 °F 30.1 in SW 6 mph 6 mph 35 % 0 in
12:01 86.2 °F 53.8 °F 30.1 in WSW 2.4 mph 2.4 mph 33 % 0 in
12:06 86.5 °F 54 °F 30.1 in WSW 5.8 mph 5.8 mph 33 % 0 in
12:11 87.3 °F 53.8 °F 30.1 in SSW 3.3 mph 3.3 mph 32 % 0 in
12:16 88.2 °F 54.7 °F 30.1 in SSW 5.6 mph 5.6 mph 32 % 0 in
12:21 87.3 °F 51.1 °F 30.1 in East 5.8 mph 5.8 mph 29 % 0 in
12:26 87.4 °F 53.1 °F 30 in West 3.5 mph 3.5 mph 31 % 0 in
12:31 87.8 °F 52.5 °F 30 in SW 6.9 mph 6.9 mph 30 % 0 in
12:36 87.8 °F 51.6 °F 30 in SE 3.5 mph 3.5 mph 29 % 0 in
12:41 88.7 °F 53.2 °F 30 in WNW 2.3 mph 2.3 mph 30 % 0 in
12:46 88.5 °F 53.1 °F 30 in WSW 3.8 mph 3.8 mph 30 % 0 in
12:51 89.2 °F 53.8 °F 30 in South 2.3 mph 2.3 mph 30 % 0 in
12:56 88.9 °F 52.5 °F 30 in SSE 5.8 mph 5.8 mph 29 % 0 in
13:01 88.3 °F 53.1 °F 30 in SSE 5.8 mph 5.8 mph 30 % 0 in
13:06 87.8 °F 53.4 °F 30 in ESE 10.4 mph 10.4 mph 31 % 0 in
13:11 86.4 °F 54 °F 30 in ENE 9.7 mph 9.7 mph 33 % 0 in
13:16 86.2 °F 53.8 °F 30 in ESE 7.1 mph 7.1 mph 33 % 0 in
13:21 86.2 °F 53.8 °F 30 in SSE 9.2 mph 9.2 mph 33 % 0 in
13:26 86.7 °F 54.1 °F 30 in East 6.9 mph 6.9 mph 33 % 0 in
13:31 86 °F 52.7 °F 30 in ESE 11.5 mph 11.5 mph 32 % 0 in
13:32 86.2 °F 52.9 °F 30 in ESE 8.1 mph 8.1 mph 32 % 0 in
13:37 87.1 °F 53.6 °F 30 in ESE 8.1 mph 8.1 mph 32 % 0 in
13:42 87.1 °F 52.9 °F 30 in ESE 9.2 mph 9.2 mph 31 % 0 in
13:47 86.7 °F 51.6 °F 30 in ESE 12.7 mph 12.7 mph 30 % 0 in
13:52 87.4 °F 52.2 °F 30 in SE 7.4 mph 7.4 mph 30 % 0 in
13:57 88.3 °F 53.1 °F 30 in ESE 5.8 mph 5.8 mph 30 % 0 in
14:02 88.3 °F 52 °F 30 in WSW 5.8 mph 5.8 mph 29 % 0 in
14:07 89.2 °F 53.8 °F 30 in SSW 4.6 mph 4.6 mph 30 % 0 in
14:12 89.6 °F 53.1 °F 30 in SW 8.1 mph 8.1 mph 29 % 0 in
14:17 90.3 °F 53.8 °F 30 in WSW 4.6 mph 4.6 mph 29 % 0 in
14:22 90.1 °F 53.6 °F 30 in SSW 5.8 mph 5.8 mph 29 % 0 in
14:27 89.8 °F 52.3 °F 30 in SSW 5.8 mph 5.8 mph 28 % 0 in
14:32 90.3 °F 52.9 °F 30 in WSW 8.7 mph 8.7 mph 28 % 0 in
14:37 90.3 °F 52.9 °F 30 in SW 5.8 mph 5.8 mph 28 % 0 in
14:42 91.4 °F 53.8 °F 30 in SSE 8.1 mph 8.1 mph 28 % 0 in
14:47 90.9 °F 53.2 °F 30 in South 5.8 mph 5.8 mph 28 % 0 in
14:52 90.7 °F 53.1 °F 30 in SW 8.1 mph 8.1 mph 28 % 0 in
14:57 90.3 °F 52.9 °F 30 in South 10.4 mph 10.4 mph 28 % 0 in
15:02 89.6 °F 52.2 °F 30 in SW 10.4 mph 10.4 mph 28 % 0 in
15:07 90 °F 52.5 °F 30 in SW 5.8 mph 5.8 mph 28 % 0 in
15:12 89.8 °F 52.3 °F 30 in SW 8.1 mph 8.1 mph 28 % 0 in
15:17 90 °F 52.5 °F 30 in SW 9.2 mph 9.2 mph 28 % 0 in
15:22 89.6 °F 52.2 °F 30 in SSW 11.5 mph 11.5 mph 28 % 0 in
15:27 89.6 °F 52.2 °F 30 in SSW 6 mph 6 mph 28 % 0 in
15:32 90.1 °F 52.5 °F 30 in WSW 9.2 mph 9.2 mph 28 % 0 in
15:37 91.2 °F 53.6 °F 30 in SSW 4.6 mph 4.6 mph 28 % 0 in
15:42 90.9 °F 52.3 °F 30 in ESE 5.8 mph 5.8 mph 27 % 0 in
15:47 91.4 °F 52.7 °F 30 in SSW 7.4 mph 7.4 mph 27 % 0 in
15:52 90.5 °F 52 °F 30 in South 5.8 mph 5.8 mph 27 % 0 in
15:57 91 °F 52.3 °F 30 in SSE 5.8 mph 5.8 mph 27 % 0 in
16:02 91.4 °F 52.7 °F 30 in South 5.9 mph 5.9 mph 27 % 0 in
16:07 89.8 °F 51.3 °F 30 in SSE 9.2 mph 9.2 mph 27 % 0 in
16:12 90.7 °F 52.2 °F 30 in WSW 4.6 mph 4.6 mph 27 % 0 in
16:17 89.4 °F 51.1 °F 30 in SW 11.5 mph 11.5 mph 27 % 0 in
16:22 89.2 °F 52 °F 30 in SSW 7.1 mph 7.1 mph 28 % 0 in
16:27 89.8 °F 51.3 °F 30 in WSW 10.9 mph 10.9 mph 27 % 0 in
16:28 89.6 °F 51.3 °F 30 in SSW 11.5 mph 11.5 mph 27 % 0 in
16:33 89.4 °F 52 °F 30 in West 8.1 mph 8.1 mph 28 % 0 in
16:38 89.6 °F 51.3 °F 30 in South 6 mph 6 mph 27 % 0 in
16:43 89.6 °F 51.3 °F 30 in South 6.9 mph 6.9 mph 27 % 0 in
16:48 89.1 °F 51.6 °F 30 in SW 10.4 mph 10.4 mph 28 % 0 in
16:53 89.8 °F 51.3 °F 30 in SW 8.1 mph 8.1 mph 27 % 0 in
16:58 89.8 °F 51.3 °F 30 in SW 5.8 mph 5.8 mph 27 % 0 in
17:03 90 °F 51.4 °F 30 in SW 5.6 mph 5.6 mph 27 % 0 in
17:08 90 °F 51.4 °F 30 in SW 6.4 mph 6.4 mph 27 % 0 in
17:13 90 °F 51.4 °F 30 in SW 3.5 mph 4 mph 27 % 0 in
17:18 90.1 °F 51.6 °F 30 in WSW 8.1 mph 8.1 mph 27 % 0 in
17:23 89.2 °F 50.9 °F 30 in SSE 5.8 mph 5.8 mph 27 % 0 in
17:28 89.8 °F 50.4 °F 30 in West 4.3 mph 4.3 mph 26 % 0 in
17:33 89.8 °F 51.3 °F 30 in SW 5.8 mph 5.8 mph 27 % 0 in
17:38 88.7 °F 50.4 °F 30 in SW 9.2 mph 9.2 mph 27 % 0 in
17:43 88.3 °F 50.2 °F 30 in SW 7.8 mph 7.8 mph 27 % 0 in
17:48 88 °F 49.8 °F 30 in SSW 5.8 mph 6.2 mph 27 % 0 in
17:53 88.3 °F 50.2 °F 30 in WSW 5.4 mph 5.4 mph 27 % 0 in
17:54 88.3 °F 50.2 °F 30 in South 3.5 mph 3.5 mph 27 % 0 in
17:59 87.8 °F 50.5 °F 30 in SSW 9.2 mph 9.2 mph 28 % 0 in
18:04 88.3 °F 51.1 °F 30 in SW 5.8 mph 5.8 mph 28 % 0 in
18:09 88.5 °F 51.3 °F 30 in SSW 7.4 mph 7.4 mph 28 % 0 in
18:14 88.5 °F 51.3 °F 30 in SSW 6.4 mph 6.4 mph 28 % 0 in
18:19 87.4 °F 50.4 °F 30 in SW 10 mph 10 mph 28 % 0 in
18:24 86.5 °F 49.6 °F 30 in SW 6.2 mph 6.2 mph 28 % 0 in
18:29 86.7 °F 49.6 °F 30 in West 7.1 mph 7.1 mph 28 % 0 in
18:34 86.5 °F 49.6 °F 30 in SSW 8.1 mph 8.1 mph 28 % 0 in
18:39 85.8 °F 48.9 °F 30 in WSW 9.2 mph 9.2 mph 28 % 0 in
18:44 86 °F 49.1 °F 30 in SW 12.7 mph 12.7 mph 28 % 0 in
18:49 85.8 °F 48.9 °F 30 in SW 6.9 mph 6.9 mph 28 % 0 in
18:54 85.1 °F 48.4 °F 30 in SW 10.4 mph 10.4 mph 28 % 0 in
18:59 85.3 °F 48.6 °F 30 in SW 9.2 mph 9.2 mph 28 % 0 in
19:04 84.6 °F 47.8 °F 30 in SW 9.2 mph 9.2 mph 28 % 0 in
19:09 84.4 °F 47.7 °F 30 in SW 7.8 mph 7.8 mph 28 % 0 in
19:14 84.2 °F 47.7 °F 30 in SW 5.8 mph 5.8 mph 28 % 0 in
19:19 84.9 °F 49.1 °F 30 in South 5.8 mph 5.8 mph 29 % 0 in
19:20 70.2 °F 52.2 °F 30 in Calm   1 mph 53 % 0 in
19:24 84.7 °F 48.9 °F 30 in WSW 3.6 mph 3.6 mph 29 % 0 in
19:29 83.8 °F 49.1 °F 30 in SW 8.1 mph 8.1 mph 30 % 0 in
19:30 69.8 °F 52.3 °F 30 in WNW 1 mph 1 mph 54 % 0 in
19:34 83.5 °F 48.7 °F 30 in SW 6.4 mph 6.4 mph 30 % 0 in
19:35 69.6 °F 52.7 °F 30 in Calm     55 % 0 in
19:39 83.1 °F 48.6 °F 30 in SW 5.8 mph 5.8 mph 30 % 0 in
19:44 82.9 °F 48.4 °F 30 in SW 10.4 mph 10.4 mph 30 % 0 in
19:45 69.3 °F 52.3 °F 30 in Calm   1 mph 55 % 0 in
19:49 82.4 °F 47.8 °F 30 in WSW 5.8 mph 5.8 mph 30 % 0 in
19:54 82.4 °F 47.8 °F 30 in South 5.8 mph 5.8 mph 30 % 0 in
19:59 82 °F 48.4 °F 30 in WSW 9.2 mph 9.2 mph 31 % 0 in
20:04 81.7 °F 48 °F 30 in SSW 7.1 mph 7.1 mph 31 % 0 in
20:05 68.5 °F 52.7 °F 30 in Calm     57 % 0 in
20:09 81.7 °F 48.9 °F 30 in SSW 5.6 mph 5.6 mph 32 % 0 in
20:10 68.2 °F 52.3 °F 30 in Calm     57 % 0 in
20:14 81 °F 48.4 °F 30 in SW 5.8 mph 5.8 mph 32 % 0 in
20:15 68 °F 52.7 °F 30 in Calm     58 % 0 in
20:19 80.6 °F 48 °F 30 in South 5.8 mph 5.8 mph 32 % 0 in
20:24 80.6 °F 48 °F 30 in SSE 5.8 mph 5.8 mph 32 % 0 in
20:25 67.5 °F 52.5 °F 30 in West 1 mph 1 mph 59 % 0 in
20:29 80.1 °F 48.4 °F 30 in SW 3.5 mph 3.5 mph 33 % 0 in
20:34 79.7 °F 48.7 °F 30 in SW 8.1 mph 8.1 mph 34 % 0 in
20:35 67.1 °F 52.3 °F 30 in WSW 1 mph 2 mph 59 % 0 in
20:39 79.3 °F 48.6 °F 30 in SW 6.9 mph 6.9 mph 34 % 0 in
20:44 78.8 °F 48 °F 30 in WSW 9.2 mph 9.2 mph 34 % 0 in
20:45 66.6 °F 52.2 °F 30 in Calm   2 mph 60 % 0 in
20:49 78.6 °F 47.8 °F 30 in WSW 3.5 mph 3.5 mph 34 % 0 in
20:54 78.3 °F 47.7 °F 30 in SW 6.9 mph 6.9 mph 34 % 0 in
20:55 66.4 °F 52.2 °F 30 in Calm   2 mph 60 % 0 in
20:59 77.9 °F 48 °F 30 in SSW 5.8 mph 5.8 mph 35 % 0 in
21:04 77.7 °F 47.8 °F 30 in SSW 5.8 mph 5.8 mph 35 % 0 in
21:05 66.4 °F 52.5 °F 30 in WSW 2 mph 2 mph 61 % 0 in
21:09 77.4 °F 47.7 °F 30 in SW 8.1 mph 8.1 mph 35 % 0 in
21:14 77.2 °F 48.2 °F 30 in WSW 4.6 mph 4.6 mph 36 % 0 in
21:15 66.2 °F 52.3 °F 30 in NE 2 mph 2 mph 61 % 0 in
21:19 76.8 °F 48.6 °F 30 in SW 6.9 mph 6.9 mph 37 % 0 in
21:24 76.5 °F 48.2 °F 30 in SSW 6.9 mph 6.9 mph 37 % 0 in
21:25 66.2 °F 52.3 °F 30 in NE 1 mph 2 mph 61 % 0 in
21:29 76.3 °F 48.7 °F 30 in SW 5.8 mph 5.8 mph 38 % 0 in
21:34 75.9 °F 48.6 °F 30 in WSW 5.8 mph 5.8 mph 38 % 0 in
21:35 75.9 °F 48.6 °F 30 in WSW 4.6 mph 4.6 mph 38 % 0 in
21:39 75.7 °F 48.9 °F 30 in WSW 5.8 mph 5.8 mph 39 % 0 in
21:44 75.4 °F 48.7 °F 30 in SW 6.9 mph 6.9 mph 39 % 0 in
21:45 65.5 °F 52.2 °F 30 in Calm   1 mph 62 % 0 in
21:49 75.2 °F 49.3 °F 30 in SW 5.8 mph 5.8 mph 40 % 0 in
21:54 74.8 °F 48.9 °F 30 in SW 5.9 mph 5.9 mph 40 % 0 in
21:55 65.1 °F 52.2 °F 30 in Calm     63 % 0 in
21:59 74.7 °F 49.5 °F 30 in SW 3.5 mph 3.5 mph 41 % 0 in
22:04 74.3 °F 49.1 °F 30 in SW 5.8 mph 5.8 mph 41 % 0 in
22:05 64.6 °F 52.2 °F 30 in Calm     64 % 0 in
22:09 74.1 °F 49.6 °F 30 in WSW 4.3 mph 4.3 mph 42 % 0 in
22:14 73.8 °F 49.8 °F 30 in SW 5.8 mph 5.8 mph 43 % 0 in
22:15 64.2 °F 51.8 °F 30 in SW 1 mph 1 mph 64 % 0 in
22:19 73.6 °F 50.4 °F 30 in SW 3.5 mph 3.5 mph 44 % 0 in
22:24 73.4 °F 50.7 °F 30 in WSW 4.9 mph 4.9 mph 45 % 0 in
22:25 63.9 °F 52 °F 30 in Calm     65 % 0 in
22:29 73.2 °F 51.3 °F 30 in WSW 3.6 mph 3.6 mph 46 % 0 in
22:34 73 °F 51.6 °F 30 in SW 3.5 mph 3.5 mph 47 % 0 in
22:35 63.7 °F 52.2 °F 30 in Calm     66 % 0 in
22:39 72.9 °F 51.4 °F 30 in SW 2.3 mph 2.9 mph 47 % 0 in
22:44 72.5 °F 51.6 °F 30 in SW 2.3 mph 2.3 mph 48 % 0 in
22:45 63.3 °F 51.8 °F 30 in Calm     66 % 0 in
22:49 72.3 °F 52.2 °F 30 in SW 2.3 mph 2.3 mph 49 % 0 in
22:54 72.1 °F 52 °F 30 in SSW 2.6 mph 2.6 mph 49 % 0 in
22:55 63.3 °F 51.8 °F 30 in Calm     66 % 0 in
22:59 72.1 °F 52 °F 30 in WSW 2.3 mph 2.3 mph 49 % 0 in
23:04 72 °F 52.3 °F 30 in WSW 2.3 mph 2.3 mph 50 % 0 in
23:05 63.1 °F 52 °F 30 in Calm     67 % 0 in
23:09 71.8 °F 52.2 °F 30 in WNW 1.2 mph 1.2 mph 50 % 0 in
23:14 71.8 °F 52.2 °F 30 in SW 2.3 mph 2.3 mph 50 % 0 in
23:15 63 °F 51.8 °F 30 in Calm     67 % 0 in
23:19 71.6 °F 52 °F 30 in WSW 2.3 mph 2.3 mph 50 % 0 in
23:24 71.6 °F 52.5 °F 30 in NNW 0.9 mph   51 % 0 in
23:25 62.8 °F 51.6 °F 30 in Calm     67 % 0 in
23:29 71.4 °F 52.3 °F 30 in WSW 2.3 mph 2.3 mph 51 % 0 in
23:34 71.4 °F 52.3 °F 30 in WSW 1.2 mph   51 % 0 in
23:35 62.8 °F 51.6 °F 30 in Calm     67 % 0 in
23:39 71.2 °F 52.7 °F 30 in West 1.2 mph   52 % 0 in
23:44 71.2 °F 52.7 °F 30 in WSW 2.3 mph 2.3 mph 52 % 0 in
23:45 62.2 °F 51.4 °F 30 in Calm   1 mph 68 % 0 in
23:49 71.1 °F 52.5 °F 30 in WNW 1.2 mph 1.2 mph 52 % 0 in
23:54 71.1 °F 52.5 °F 30 in West 2.3 mph 2.3 mph 52 % 0 in
23:55 62.1 °F 51.8 °F 30 in Calm     69 % 0 in
23:59 70.9 °F 52.9 °F 30 in West 0.9 mph   53 % 0 in
Meteo Sesrovires
Elogis d' Weather Underground - 3.75 mb

Guio original per  Jim McMurry - jmcmurry@mwt.net Adaptat per a la plantilla per  Wim van der Kuil - Leuven-Template.eu

Trobareu la nostra informacio del temps tambe a:

Weather Underground

AWEKAS